AVA9241 SKBO-SKPE
Flight info
| Callsign | AVA9241 |
|---|---|
| Flight time | 0h 27m |
| Altitude | 18000 |
| Route | ISNOX2S ISNOX ISNOX1C |
| Aircraft | A320/M-SDE3FGHIRWY/LB1 |
Departure
| Time | 2026-05-04 16:28 |
|---|---|
| Airport | El Dorado International Airport (SKBO) |
Arrival
| Time | 2026-05-04 16:55 |
|---|---|
| Airport | Matecaña International Airport (SKPE) |
| Time | Latitude | Longitude | Altitude | Speed | Heading |
|---|---|---|---|---|---|
| 2026-05-04 16:19 | 4.69791 | -74.14634 | 8373 ft | 0 kts | 307° |
| 2026-05-04 16:21 | 4.69795 | -74.14640 | 8373 ft | 6 kts | 307° |
| 2026-05-04 16:22 | 4.69895 | -74.14772 | 8373 ft | 14 kts | 306° |
| 2026-05-04 16:22 | 4.69868 | -74.14986 | 8373 ft | 13 kts | 296° |
| 2026-05-04 16:23 | 4.70118 | -74.15323 | 8373 ft | 25 kts | 307° |
| 2026-05-04 16:24 | 4.70571 | -74.15921 | 8372 ft | 29 kts | 307° |
| 2026-05-04 16:25 | 4.70816 | -74.16244 | 8370 ft | 30 kts | 307° |
| 2026-05-04 16:26 | 4.71172 | -74.16820 | 8373 ft | 18 kts | 216° |
| 2026-05-04 16:26 | 4.70711 | -74.16460 | 8375 ft | 101 kts | 127° |
| 2026-05-04 16:27 | 4.69676 | -74.15094 | 8640 ft | 169 kts | 125° |
| 2026-05-04 16:28 | 4.66902 | -74.13372 | 10507 ft | 176 kts | 200° |
| 2026-05-04 16:28 | 4.64510 | -74.16298 | 11899 ft | 206 kts | 236° |
| 2026-05-04 16:29 | 4.61245 | -74.22258 | 13496 ft | 279 kts | 258° |
| 2026-05-04 16:30 | 4.59703 | -74.28488 | 15061 ft | 329 kts | 242° |
| 2026-05-04 16:31 | 4.57582 | -74.32626 | 16627 ft | 338 kts | 242° |
| 2026-05-04 16:31 | 4.54209 | -74.39201 | 17847 ft | 382 kts | 241° |
| 2026-05-04 16:32 | 4.50367 | -74.46706 | 17783 ft | 410 kts | 242° |
| 2026-05-04 16:33 | 4.47767 | -74.51799 | 17725 ft | 411 kts | 242° |
| 2026-05-04 16:33 | 4.45170 | -74.56886 | 17674 ft | 410 kts | 242° |
| 2026-05-04 16:34 | 4.42564 | -74.61971 | 17632 ft | 410 kts | 242° |
| 2026-05-04 16:34 | 4.41263 | -74.64510 | 17627 ft | 409 kts | 242° |
| 2026-05-04 16:35 | 4.37361 | -74.72127 | 17607 ft | 410 kts | 241° |
| 2026-05-04 16:35 | 4.33432 | -74.79738 | 17586 ft | 410 kts | 242° |
| 2026-05-04 16:36 | 4.32367 | -74.82385 | 17578 ft | 411 kts | 253° |
| 2026-05-04 16:36 | 4.31892 | -74.88059 | 17571 ft | 411 kts | 277° |
| 2026-05-04 16:37 | 4.33081 | -74.93659 | 17578 ft | 411 kts | 283° |
| 2026-05-04 16:37 | 4.33721 | -74.96455 | 17583 ft | 411 kts | 283° |
| 2026-05-04 16:37 | 4.35000 | -75.02038 | 17602 ft | 411 kts | 283° |
| 2026-05-04 16:38 | 4.36280 | -75.07619 | 17629 ft | 411 kts | 283° |
| 2026-05-04 16:39 | 4.38190 | -75.15956 | 17653 ft | 411 kts | 283° |
| 2026-05-04 16:39 | 4.39466 | -75.21541 | 17670 ft | 412 kts | 283° |
| 2026-05-04 16:40 | 4.40748 | -75.27132 | 17681 ft | 412 kts | 283° |
| 2026-05-04 16:40 | 4.42027 | -75.32727 | 17689 ft | 413 kts | 283° |
| 2026-05-04 16:41 | 4.43309 | -75.38329 | 17699 ft | 413 kts | 283° |
| 2026-05-04 16:41 | 4.45238 | -75.46728 | 17715 ft | 412 kts | 283° |
| 2026-05-04 16:42 | 4.47213 | -75.55100 | 17733 ft | 411 kts | 288° |
| 2026-05-04 16:43 | 4.49840 | -75.60130 | 17737 ft | 408 kts | 309° |
| 2026-05-04 16:43 | 4.53975 | -75.63839 | 17490 ft | 380 kts | 328° |
| 2026-05-04 16:43 | 4.56106 | -75.65248 | 17321 ft | 353 kts | 330° |
| 2026-05-04 16:44 | 4.64156 | -75.69209 | 15516 ft | 310 kts | 336° |
| 2026-05-04 16:45 | 4.67613 | -75.71521 | 14925 ft | 290 kts | 309° |
| 2026-05-04 16:46 | 4.69604 | -75.77026 | 13678 ft | 281 kts | 284° |
| 2026-05-04 16:46 | 4.70104 | -75.80924 | 12989 ft | 281 kts | 261° |
| 2026-05-04 16:47 | 4.69022 | -75.84552 | 12566 ft | 275 kts | 251° |
| 2026-05-04 16:47 | 4.67823 | -75.88260 | 11217 ft | 280 kts | 251° |
| 2026-05-04 16:48 | 4.66822 | -75.93673 | 9905 ft | 257 kts | 292° |
| 2026-05-04 16:48 | 4.67870 | -75.95070 | 9479 ft | 252 kts | 324° |
| 2026-05-04 16:49 | 4.71151 | -75.96249 | 8598 ft | 251 kts | 348° |
| 2026-05-04 16:49 | 4.74271 | -75.95107 | 7748 ft | 254 kts | 57° |
| 2026-05-04 16:50 | 4.75412 | -75.91861 | 7044 ft | 238 kts | 73° |
| 2026-05-04 16:50 | 4.76381 | -75.88946 | 6934 ft | 201 kts | 73° |
| 2026-05-04 16:51 | 4.77211 | -75.86443 | 6497 ft | 177 kts | 73° |
| 2026-05-04 16:51 | 4.77580 | -75.85323 | 6327 ft | 161 kts | 73° |
| 2026-05-04 16:51 | 4.78239 | -75.83314 | 6038 ft | 147 kts | 74° |
| 2026-05-04 16:52 | 4.78864 | -75.81382 | 5677 ft | 142 kts | 74° |
| 2026-05-04 16:52 | 4.79166 | -75.80440 | 5497 ft | 142 kts | 73° |
| 2026-05-04 16:53 | 4.79771 | -75.78583 | 5133 ft | 140 kts | 73° |
| 2026-05-04 16:53 | 4.80669 | -75.75803 | 4570 ft | 140 kts | 71° |
| 2026-05-04 16:54 | 4.80967 | -75.74879 | 4403 ft | 139 kts | 71° |
| 2026-05-04 16:55 | 4.81490 | -75.73479 | 4410 ft | 6 kts | 335° |
| 2026-05-04 16:55 | 4.81505 | -75.73553 | 4408 ft | 7 kts | 249° |
| 2026-05-04 16:56 | 4.81464 | -75.73675 | 4403 ft | 8 kts | 251° |
| 2026-05-04 16:56 | 4.81508 | -75.73722 | 4402 ft | 0 kts | 343° |
| 2026-05-04 16:57 | 4.81510 | -75.73723 | 4402 ft | 0 kts | 341° |